Terminal Aerodrome Forecast
Issued by NWS Cleveland, OH

Home | Current Version | Previous Version | Graphics & Text | Print | Product List | Glossary Off
Versions: 1 2 3 4 5 6 7 8 9 10 11 12 13 14 15 16 17 18 19 20 21 22 23 24 25 26

769
FTUS41 KCLE 230531
TAFCLE
TAF
KCLE 230531Z 2306/2412 26004KT P6SM SCT023 BKN060
     FM231100 VRB03KT 5SM BR BKN015 BKN019
     FM231500 28004KT P6SM SCT019 BKN035 PROB30 2318/2322 4SM TS
      BKN030CB BKN040
     FM240500 25005KT 5SM BR FEW035 SCT140=

USA.gov is the U.S. government's official web portal to all federal, state and local government web resources and services.